sensor_id;sensor_type;location;lat;lon;timestamp;P1;durP1;ratioP1;P2;durP2;ratioP2
11006;SDS011;8186;57.652;11.968;2024-03-02T00:01:04;52.13;;;30.43;;
11006;SDS011;8186;57.652;11.968;2024-03-02T00:03:31;51.57;;;30.77;;
11006;SDS011;8186;57.652;11.968;2024-03-02T00:05:58;56.90;;;32.70;;
11006;SDS011;8186;57.652;11.968;2024-03-02T00:08:25;46.87;;;29.77;;
11006;SDS011;8186;57.652;11.968;2024-03-02T00:10:57;56.67;;;32.43;;
11006;SDS011;8186;57.652;11.968;2024-03-02T00:13:25;49.23;;;31.27;;
11006;SDS011;8186;57.652;11.968;2024-03-02T00:15:52;53.37;;;31.77;;
11006;SDS011;8186;57.652;11.968;2024-03-02T00:18:20;53.23;;;31.93;;
11006;SDS011;8186;57.652;11.968;2024-03-02T00:20:52;51.70;;;31.47;;
11006;SDS011;8186;57.652;11.968;2024-03-02T00:23:19;53.77;;;31.57;;
11006;SDS011;8186;57.652;11.968;2024-03-02T00:25:47;47.97;;;29.60;;
11006;SDS011;8186;57.652;11.968;2024-03-02T00:28:18;51.50;;;31.33;;
11006;SDS011;8186;57.652;11.968;2024-03-02T00:30:56;51.40;;;31.40;;
11006;SDS011;8186;57.652;11.968;2024-03-02T00:33:26;55.37;;;31.73;;
11006;SDS011;8186;57.652;11.968;2024-03-02T00:35:54;51.83;;;30.93;;
11006;SDS011;8186;57.652;11.968;2024-03-02T00:38:21;53.30;;;31.23;;
11006;SDS011;8186;57.652;11.968;2024-03-02T00:40:49;48.70;;;29.33;;
11006;SDS011;8186;57.652;11.968;2024-03-02T00:46:12;49.17;;;31.63;;
11006;SDS011;8186;57.652;11.968;2024-03-02T00:48:40;54.00;;;30.13;;
11006;SDS011;8186;57.652;11.968;2024-03-02T00:51:21;49.87;;;30.47;;
11006;SDS011;8186;57.652;11.968;2024-03-02T00:53:48;51.40;;;29.77;;
11006;SDS011;8186;57.652;11.968;2024-03-02T00:56:16;51.90;;;30.67;;
11006;SDS011;8186;57.652;11.968;2024-03-02T00:58:43;49.53;;;31.43;;
11006;SDS011;8186;57.652;11.968;2024-03-02T01:01:11;48.50;;;30.23;;
11006;SDS011;8186;57.652;11.968;2024-03-02T01:03:38;53.87;;;32.60;;
11006;SDS011;8186;57.652;11.968;2024-03-02T01:06:04;48.40;;;30.03;;
11006;SDS011;8186;57.652;11.968;2024-03-02T01:08:32;48.83;;;30.53;;
11006;SDS011;8186;57.652;11.968;2024-03-02T01:10:59;48.77;;;30.40;;
11006;SDS011;8186;57.652;11.968;2024-03-02T01:13:26;48.30;;;30.17;;
11006;SDS011;8186;57.652;11.968;2024-03-02T01:15:55;51.87;;;31.40;;
11006;SDS011;8186;57.652;11.968;2024-03-02T01:18:22;49.50;;;29.17;;
11006;SDS011;8186;57.652;11.968;2024-03-02T01:20:49;51.00;;;31.53;;
11006;SDS011;8186;57.652;11.968;2024-03-02T01:23:17;55.03;;;31.70;;
11006;SDS011;8186;57.652;11.968;2024-03-02T01:25:44;47.17;;;28.93;;
11006;SDS011;8186;57.652;11.968;2024-03-02T01:28:11;49.90;;;31.27;;
11006;SDS011;8186;57.652;11.968;2024-03-02T01:30:38;48.23;;;30.10;;
11006;SDS011;8186;57.652;11.968;2024-03-02T01:33:06;48.03;;;29.67;;
11006;SDS011;8186;57.652;11.968;2024-03-02T01:35:33;50.83;;;28.80;;
11006;SDS011;8186;57.652;11.968;2024-03-02T01:38:01;53.37;;;32.10;;
11006;SDS011;8186;57.652;11.968;2024-03-02T01:40:27;52.23;;;31.60;;
11006;SDS011;8186;57.652;11.968;2024-03-02T01:42:54;52.80;;;30.87;;
11006;SDS011;8186;57.652;11.968;2024-03-02T01:45:23;53.00;;;31.00;;
11006;SDS011;8186;57.652;11.968;2024-03-02T01:47:51;48.97;;;30.80;;
11006;SDS011;8186;57.652;11.968;2024-03-02T01:50:25;47.53;;;30.87;;
11006;SDS011;8186;57.652;11.968;2024-03-02T01:52:53;48.13;;;28.63;;
11006;SDS011;8186;57.652;11.968;2024-03-02T01:55:20;44.53;;;27.80;;
11006;SDS011;8186;57.652;11.968;2024-03-02T01:57:47;48.67;;;30.07;;
11006;SDS011;8186;57.652;11.968;2024-03-02T02:00:16;47.20;;;28.47;;
11006;SDS011;8186;57.652;11.968;2024-03-02T02:02:43;49.53;;;29.83;;
11006;SDS011;8186;57.652;11.968;2024-03-02T02:05:10;47.40;;;28.53;;
11006;SDS011;8186;57.652;11.968;2024-03-02T02:07:38;44.40;;;27.77;;
11006;SDS011;8186;57.652;11.968;2024-03-02T02:10:05;46.97;;;28.50;;
11006;SDS011;8186;57.652;11.968;2024-03-02T02:12:33;46.77;;;28.83;;
11006;SDS011;8186;57.652;11.968;2024-03-02T02:14:59;44.97;;;28.93;;
11006;SDS011;8186;57.652;11.968;2024-03-02T02:17:26;43.77;;;27.87;;
11006;SDS011;8186;57.652;11.968;2024-03-02T02:19:53;45.47;;;27.20;;
11006;SDS011;8186;57.652;11.968;2024-03-02T02:22:21;45.50;;;28.57;;
11006;SDS011;8186;57.652;11.968;2024-03-02T02:24:48;42.33;;;28.30;;
11006;SDS011;8186;57.652;11.968;2024-03-02T02:27:15;45.13;;;27.83;;
11006;SDS011;8186;57.652;11.968;2024-03-02T02:29:42;45.33;;;28.87;;
11006;SDS011;8186;57.652;11.968;2024-03-02T02:32:08;41.43;;;28.67;;
11006;SDS011;8186;57.652;11.968;2024-03-02T02:34:35;46.70;;;26.67;;
11006;SDS011;8186;57.652;11.968;2024-03-02T02:37:02;45.30;;;26.60;;
11006;SDS011;8186;57.652;11.968;2024-03-02T02:39:30;39.63;;;24.97;;
11006;SDS011;8186;57.652;11.968;2024-03-02T02:41:57;44.57;;;27.40;;
11006;SDS011;8186;57.652;11.968;2024-03-02T02:44:26;41.43;;;26.07;;
11006;SDS011;8186;57.652;11.968;2024-03-02T02:46:53;43.93;;;27.53;;
11006;SDS011;8186;57.652;11.968;2024-03-02T02:49:19;41.80;;;27.20;;
11006;SDS011;8186;57.652;11.968;2024-03-02T02:51:46;46.17;;;26.17;;
11006;SDS011;8186;57.652;11.968;2024-03-02T02:54:13;45.93;;;27.73;;
11006;SDS011;8186;57.652;11.968;2024-03-02T02:56:41;42.00;;;27.17;;
11006;SDS011;8186;57.652;11.968;2024-03-02T02:59:08;44.40;;;26.87;;
11006;SDS011;8186;57.652;11.968;2024-03-02T03:01:35;41.80;;;27.03;;
11006;SDS011;8186;57.652;11.968;2024-03-02T03:04:02;45.67;;;26.00;;
11006;SDS011;8186;57.652;11.968;2024-03-02T03:06:28;44.33;;;25.67;;
11006;SDS011;8186;57.652;11.968;2024-03-02T03:08:55;43.67;;;26.33;;
11006;SDS011;8186;57.652;11.968;2024-03-02T03:11:22;42.20;;;27.10;;
11006;SDS011;8186;57.652;11.968;2024-03-02T03:13:53;42.10;;;25.60;;
11006;SDS011;8186;57.652;11.968;2024-03-02T03:16:20;44.83;;;26.10;;
11006;SDS011;8186;57.652;11.968;2024-03-02T03:18:47;46.87;;;27.57;;
11006;SDS011;8186;57.652;11.968;2024-03-02T03:21:16;41.43;;;25.60;;
11006;SDS011;8186;57.652;11.968;2024-03-02T03:23:43;43.83;;;26.00;;
11006;SDS011;8186;57.652;11.968;2024-03-02T03:26:10;39.73;;;25.27;;
11006;SDS011;8186;57.652;11.968;2024-03-02T03:28:37;38.73;;;25.83;;
11006;SDS011;8186;57.652;11.968;2024-03-02T03:31:05;45.17;;;25.83;;
11006;SDS011;8186;57.652;11.968;2024-03-02T03:33:32;39.00;;;25.43;;
11006;SDS011;8186;57.652;11.968;2024-03-02T03:35:59;38.53;;;24.67;;
11006;SDS011;8186;57.652;11.968;2024-03-02T03:38:28;42.07;;;26.03;;
11006;SDS011;8186;57.652;11.968;2024-03-02T03:40:55;40.13;;;25.00;;
11006;SDS011;8186;57.652;11.968;2024-03-02T03:43:22;48.77;;;26.33;;
11006;SDS011;8186;57.652;11.968;2024-03-02T03:45:49;39.67;;;25.27;;
11006;SDS011;8186;57.652;11.968;2024-03-02T03:48:17;41.07;;;24.43;;
11006;SDS011;8186;57.652;11.968;2024-03-02T03:50:44;39.37;;;24.40;;
11006;SDS011;8186;57.652;11.968;2024-03-02T03:53:10;39.83;;;24.93;;
11006;SDS011;8186;57.652;11.968;2024-03-02T03:55:37;41.20;;;25.40;;
11006;SDS011;8186;57.652;11.968;2024-03-02T03:58:04;38.30;;;24.20;;
11006;SDS011;8186;57.652;11.968;2024-03-02T04:00:31;40.73;;;26.07;;
11006;SDS011;8186;57.652;11.968;2024-03-02T04:02:58;41.43;;;25.43;;
11006;SDS011;8186;57.652;11.968;2024-03-02T04:05:26;43.70;;;25.93;;
11006;SDS011;8186;57.652;11.968;2024-03-02T04:07:52;41.97;;;24.60;;
11006;SDS011;8186;57.652;11.968;2024-03-02T04:10:19;43.07;;;25.03;;
11006;SDS011;8186;57.652;11.968;2024-03-02T04:12:46;40.23;;;25.07;;
11006;SDS011;8186;57.652;11.968;2024-03-02T04:15:13;39.23;;;24.70;;
11006;SDS011;8186;57.652;11.968;2024-03-02T04:17:40;43.50;;;25.27;;
11006;SDS011;8186;57.652;11.968;2024-03-02T04:20:07;40.23;;;24.47;;
11006;SDS011;8186;57.652;11.968;2024-03-02T04:22:35;40.03;;;25.67;;
11006;SDS011;8186;57.652;11.968;2024-03-02T04:25:02;40.90;;;25.80;;
11006;SDS011;8186;57.652;11.968;2024-03-02T04:27:32;42.97;;;25.20;;
11006;SDS011;8186;57.652;11.968;2024-03-02T04:29:59;43.53;;;26.67;;
11006;SDS011;8186;57.652;11.968;2024-03-02T04:32:26;42.97;;;25.33;;
11006;SDS011;8186;57.652;11.968;2024-03-02T04:34:53;38.70;;;24.70;;
11006;SDS011;8186;57.652;11.968;2024-03-02T04:37:20;37.87;;;24.50;;
11006;SDS011;8186;57.652;11.968;2024-03-02T04:39:48;41.20;;;26.20;;
11006;SDS011;8186;57.652;11.968;2024-03-02T04:42:15;41.17;;;25.40;;
11006;SDS011;8186;57.652;11.968;2024-03-02T04:44:42;41.87;;;25.47;;
11006;SDS011;8186;57.652;11.968;2024-03-02T04:47:09;40.83;;;25.90;;
11006;SDS011;8186;57.652;11.968;2024-03-02T04:49:35;39.00;;;24.60;;
11006;SDS011;8186;57.652;11.968;2024-03-02T04:52:02;41.33;;;25.50;;
11006;SDS011;8186;57.652;11.968;2024-03-02T04:54:29;41.07;;;26.50;;
11006;SDS011;8186;57.652;11.968;2024-03-02T04:56:58;45.00;;;25.67;;
11006;SDS011;8186;57.652;11.968;2024-03-02T04:59:24;43.20;;;26.50;;
11006;SDS011;8186;57.652;11.968;2024-03-02T05:01:51;44.50;;;27.50;;
11006;SDS011;8186;57.652;11.968;2024-03-02T05:04:18;42.40;;;25.60;;
11006;SDS011;8186;57.652;11.968;2024-03-02T05:06:45;43.93;;;27.47;;
11006;SDS011;8186;57.652;11.968;2024-03-02T05:09:17;38.30;;;25.57;;
11006;SDS011;8186;57.652;11.968;2024-03-02T05:11:44;41.63;;;26.60;;
11006;SDS011;8186;57.652;11.968;2024-03-02T05:14:25;41.73;;;26.40;;
11006;SDS011;8186;57.652;11.968;2024-03-02T05:16:52;41.30;;;25.10;;
11006;SDS011;8186;57.652;11.968;2024-03-02T05:19:19;43.63;;;26.60;;
11006;SDS011;8186;57.652;11.968;2024-03-02T05:21:46;48.20;;;27.43;;
11006;SDS011;8186;57.652;11.968;2024-03-02T05:24:13;42.50;;;26.20;;
11006;SDS011;8186;57.652;11.968;2024-03-02T05:26:40;47.03;;;28.27;;
11006;SDS011;8186;57.652;11.968;2024-03-02T05:29:07;40.80;;;27.03;;
11006;SDS011;8186;57.652;11.968;2024-03-02T05:31:35;45.13;;;26.33;;
11006;SDS011;8186;57.652;11.968;2024-03-02T05:34:02;50.43;;;27.37;;
11006;SDS011;8186;57.652;11.968;2024-03-02T05:36:30;45.10;;;27.87;;
11006;SDS011;8186;57.652;11.968;2024-03-02T05:38:58;49.10;;;27.77;;
11006;SDS011;8186;57.652;11.968;2024-03-02T05:41:24;47.90;;;26.60;;
11006;SDS011;8186;57.652;11.968;2024-03-02T05:43:51;47.67;;;29.10;;
11006;SDS011;8186;57.652;11.968;2024-03-02T05:46:18;49.73;;;29.67;;
11006;SDS011;8186;57.652;11.968;2024-03-02T05:48:46;49.77;;;29.97;;
11006;SDS011;8186;57.652;11.968;2024-03-02T05:51:13;45.23;;;28.60;;
11006;SDS011;8186;57.652;11.968;2024-03-02T05:53:40;46.03;;;28.33;;
11006;SDS011;8186;57.652;11.968;2024-03-02T05:56:07;48.90;;;28.47;;
11006;SDS011;8186;57.652;11.968;2024-03-02T05:58:34;50.47;;;30.30;;
11006;SDS011;8186;57.652;11.968;2024-03-02T06:01:14;50.53;;;29.87;;
11006;SDS011;8186;57.652;11.968;2024-03-02T06:03:43;49.17;;;31.00;;
11006;SDS011;8186;57.652;11.968;2024-03-02T06:06:11;48.70;;;30.03;;
11006;SDS011;8186;57.652;11.968;2024-03-02T06:08:38;58.87;;;32.47;;
11006;SDS011;8186;57.652;11.968;2024-03-02T06:11:04;57.37;;;32.97;;
11006;SDS011;8186;57.652;11.968;2024-03-02T06:13:31;52.70;;;31.93;;
11006;SDS011;8186;57.652;11.968;2024-03-02T06:15:58;48.27;;;30.53;;
11006;SDS011;8186;57.652;11.968;2024-03-02T06:18:25;55.27;;;31.93;;
11006;SDS011;8186;57.652;11.968;2024-03-02T06:20:53;54.13;;;31.73;;
11006;SDS011;8186;57.652;11.968;2024-03-02T06:23:21;54.43;;;32.10;;
11006;SDS011;8186;57.652;11.968;2024-03-02T06:25:48;48.83;;;30.37;;
11006;SDS011;8186;57.652;11.968;2024-03-02T06:28:15;50.77;;;29.30;;
11006;SDS011;8186;57.652;11.968;2024-03-02T06:30:41;51.97;;;32.07;;
11006;SDS011;8186;57.652;11.968;2024-03-02T06:33:08;53.30;;;31.97;;
11006;SDS011;8186;57.652;11.968;2024-03-02T06:35:35;53.47;;;31.90;;
11006;SDS011;8186;57.652;11.968;2024-03-02T06:38:02;51.30;;;33.10;;
11006;SDS011;8186;57.652;11.968;2024-03-02T06:40:30;53.87;;;32.37;;
11006;SDS011;8186;57.652;11.968;2024-03-02T06:42:57;51.90;;;32.53;;
11006;SDS011;8186;57.652;11.968;2024-03-02T06:45:24;54.07;;;32.10;;
11006;SDS011;8186;57.652;11.968;2024-03-02T06:47:51;51.90;;;33.00;;
11006;SDS011;8186;57.652;11.968;2024-03-02T06:50:17;55.13;;;33.30;;
11006;SDS011;8186;57.652;11.968;2024-03-02T06:52:44;54.93;;;32.10;;
11006;SDS011;8186;57.652;11.968;2024-03-02T06:55:11;55.53;;;33.50;;
11006;SDS011;8186;57.652;11.968;2024-03-02T06:57:39;55.93;;;33.13;;
11006;SDS011;8186;57.652;11.968;2024-03-02T07:00:07;58.37;;;33.00;;
11006;SDS011;8186;57.652;11.968;2024-03-02T07:02:34;55.83;;;33.83;;
11006;SDS011;8186;57.652;11.968;2024-03-02T07:05:02;58.93;;;34.10;;
11006;SDS011;8186;57.652;11.968;2024-03-02T07:07:29;48.70;;;32.50;;
11006;SDS011;8186;57.652;11.968;2024-03-02T07:09:55;56.70;;;32.60;;
11006;SDS011;8186;57.652;11.968;2024-03-02T07:12:22;53.70;;;33.83;;
11006;SDS011;8186;57.652;11.968;2024-03-02T07:14:50;61.50;;;33.97;;
11006;SDS011;8186;57.652;11.968;2024-03-02T07:17:33;58.20;;;33.57;;
11006;SDS011;8186;57.652;11.968;2024-03-02T07:20:00;52.83;;;33.07;;
11006;SDS011;8186;57.652;11.968;2024-03-02T07:22:29;56.73;;;34.27;;
11006;SDS011;8186;57.652;11.968;2024-03-02T07:24:56;56.80;;;33.57;;
11006;SDS011;8186;57.652;11.968;2024-03-02T07:27:23;55.17;;;33.70;;
11006;SDS011;8186;57.652;11.968;2024-03-02T07:29:51;56.07;;;34.07;;
11006;SDS011;8186;57.652;11.968;2024-03-02T07:32:17;54.37;;;35.13;;
11006;SDS011;8186;57.652;11.968;2024-03-02T07:34:44;57.43;;;35.10;;
11006;SDS011;8186;57.652;11.968;2024-03-02T07:37:11;57.23;;;34.87;;
11006;SDS011;8186;57.652;11.968;2024-03-02T07:39:38;63.20;;;35.67;;
11006;SDS011;8186;57.652;11.968;2024-03-02T07:42:05;59.07;;;34.10;;
11006;SDS011;8186;57.652;11.968;2024-03-02T07:44:32;54.97;;;33.13;;
11006;SDS011;8186;57.652;11.968;2024-03-02T07:47:00;63.10;;;34.73;;
11006;SDS011;8186;57.652;11.968;2024-03-02T07:49:27;53.10;;;34.53;;
11006;SDS011;8186;57.652;11.968;2024-03-02T07:51:54;52.27;;;33.70;;
11006;SDS011;8186;57.652;11.968;2024-03-02T07:54:20;58.67;;;35.13;;
11006;SDS011;8186;57.652;11.968;2024-03-02T07:56:47;56.93;;;35.63;;
11006;SDS011;8186;57.652;11.968;2024-03-02T07:59:14;57.27;;;35.03;;
11006;SDS011;8186;57.652;11.968;2024-03-02T08:01:41;59.53;;;34.87;;
11006;SDS011;8186;57.652;11.968;2024-03-02T08:04:10;54.13;;;35.70;;
11006;SDS011;8186;57.652;11.968;2024-03-02T08:06:37;56.80;;;35.10;;
11006;SDS011;8186;57.652;11.968;2024-03-02T08:09:03;57.03;;;36.20;;
11006;SDS011;8186;57.652;11.968;2024-03-02T08:11:35;59.57;;;36.10;;
11006;SDS011;8186;57.652;11.968;2024-03-02T08:14:02;56.40;;;36.00;;
11006;SDS011;8186;57.652;11.968;2024-03-02T08:16:29;57.17;;;35.07;;
11006;SDS011;8186;57.652;11.968;2024-03-02T08:18:56;51.77;;;35.37;;
11006;SDS011;8186;57.652;11.968;2024-03-02T08:21:25;56.77;;;34.93;;
11006;SDS011;8186;57.652;11.968;2024-03-02T08:23:55;54.20;;;35.53;;
11006;SDS011;8186;57.652;11.968;2024-03-02T08:26:24;53.93;;;34.40;;
11006;SDS011;8186;57.652;11.968;2024-03-02T08:28:50;53.23;;;36.30;;
11006;SDS011;8186;57.652;11.968;2024-03-02T08:31:18;53.60;;;37.53;;
11006;SDS011;8186;57.652;11.968;2024-03-02T08:33:44;57.83;;;36.73;;
11006;SDS011;8186;57.652;11.968;2024-03-02T08:36:11;56.47;;;36.00;;
11006;SDS011;8186;57.652;11.968;2024-03-02T08:38:40;55.90;;;36.13;;
11006;SDS011;8186;57.652;11.968;2024-03-02T08:41:07;55.90;;;36.23;;
11006;SDS011;8186;57.652;11.968;2024-03-02T08:43:34;57.70;;;37.23;;
11006;SDS011;8186;57.652;11.968;2024-03-02T08:46:00;56.70;;;37.40;;
11006;SDS011;8186;57.652;11.968;2024-03-02T08:48:27;52.47;;;35.73;;
11006;SDS011;8186;57.652;11.968;2024-03-02T08:50:54;52.53;;;35.27;;
11006;SDS011;8186;57.652;11.968;2024-03-02T08:53:21;55.70;;;37.30;;
11006;SDS011;8186;57.652;11.968;2024-03-02T08:55:50;54.33;;;36.67;;
11006;SDS011;8186;57.652;11.968;2024-03-02T08:58:16;53.20;;;37.30;;
11006;SDS011;8186;57.652;11.968;2024-03-02T09:00:43;52.43;;;36.37;;
11006;SDS011;8186;57.652;11.968;2024-03-02T09:03:10;56.47;;;37.30;;
11006;SDS011;8186;57.652;11.968;2024-03-02T09:05:37;55.40;;;37.87;;
11006;SDS011;8186;57.652;11.968;2024-03-02T09:08:04;54.13;;;37.47;;
11006;SDS011;8186;57.652;11.968;2024-03-02T09:10:31;55.50;;;36.30;;
11006;SDS011;8186;57.652;11.968;2024-03-02T09:13:00;60.37;;;37.70;;
11006;SDS011;8186;57.652;11.968;2024-03-02T09:15:27;56.47;;;37.10;;
11006;SDS011;8186;57.652;11.968;2024-03-02T09:17:54;51.17;;;36.93;;
11006;SDS011;8186;57.652;11.968;2024-03-02T09:20:21;50.93;;;36.13;;
11006;SDS011;8186;57.652;11.968;2024-03-02T09:22:48;50.80;;;36.70;;
11006;SDS011;8186;57.652;11.968;2024-03-02T09:25:15;55.60;;;36.33;;
11006;SDS011;8186;57.652;11.968;2024-03-02T09:27:42;54.50;;;36.47;;
11006;SDS011;8186;57.652;11.968;2024-03-02T09:30:11;53.20;;;35.87;;
11006;SDS011;8186;57.652;11.968;2024-03-02T09:32:40;55.83;;;36.40;;
11006;SDS011;8186;57.652;11.968;2024-03-02T09:35:07;54.63;;;35.50;;
11006;SDS011;8186;57.652;11.968;2024-03-02T09:37:35;52.77;;;35.93;;
11006;SDS011;8186;57.652;11.968;2024-03-02T09:40:02;54.33;;;35.43;;
11006;SDS011;8186;57.652;11.968;2024-03-02T09:42:29;47.47;;;35.10;;
11006;SDS011;8186;57.652;11.968;2024-03-02T09:44:57;51.23;;;35.70;;
11006;SDS011;8186;57.652;11.968;2024-03-02T09:47:26;49.70;;;35.90;;
11006;SDS011;8186;57.652;11.968;2024-03-02T09:49:53;49.40;;;35.87;;
11006;SDS011;8186;57.652;11.968;2024-03-02T09:52:20;52.33;;;36.87;;
11006;SDS011;8186;57.652;11.968;2024-03-02T09:54:48;55.57;;;36.23;;
11006;SDS011;8186;57.652;11.968;2024-03-02T09:57:15;51.67;;;37.87;;
11006;SDS011;8186;57.652;11.968;2024-03-02T09:59:43;51.43;;;36.93;;
11006;SDS011;8186;57.652;11.968;2024-03-02T10:02:10;51.73;;;36.87;;
11006;SDS011;8186;57.652;11.968;2024-03-02T10:04:38;50.20;;;35.97;;
11006;SDS011;8186;57.652;11.968;2024-03-02T10:07:09;54.10;;;36.67;;
11006;SDS011;8186;57.652;11.968;2024-03-02T10:09:37;49.17;;;35.60;;
11006;SDS011;8186;57.652;11.968;2024-03-02T10:12:04;53.83;;;37.90;;
11006;SDS011;8186;57.652;11.968;2024-03-02T10:14:32;48.13;;;35.57;;
11006;SDS011;8186;57.652;11.968;2024-03-02T10:17:01;49.63;;;35.77;;
11006;SDS011;8186;57.652;11.968;2024-03-02T10:19:29;48.27;;;35.67;;
11006;SDS011;8186;57.652;11.968;2024-03-02T10:21:59;49.60;;;36.47;;
11006;SDS011;8186;57.652;11.968;2024-03-02T10:24:27;47.70;;;34.67;;
11006;SDS011;8186;57.652;11.968;2024-03-02T10:26:55;47.70;;;34.40;;
11006;SDS011;8186;57.652;11.968;2024-03-02T10:29:21;53.63;;;37.43;;
11006;SDS011;8186;57.652;11.968;2024-03-02T10:31:53;49.37;;;35.13;;
11006;SDS011;8186;57.652;11.968;2024-03-02T10:34:21;47.47;;;35.63;;
11006;SDS011;8186;57.652;11.968;2024-03-02T10:36:48;46.00;;;34.27;;
11006;SDS011;8186;57.652;11.968;2024-03-02T10:39:17;47.63;;;34.83;;
11006;SDS011;8186;57.652;11.968;2024-03-02T10:41:45;47.30;;;35.30;;
11006;SDS011;8186;57.652;11.968;2024-03-02T10:44:12;49.40;;;34.93;;
11006;SDS011;8186;57.652;11.968;2024-03-02T10:46:39;47.37;;;33.30;;
11006;SDS011;8186;57.652;11.968;2024-03-02T10:49:06;47.00;;;34.50;;
11006;SDS011;8186;57.652;11.968;2024-03-02T10:51:34;46.30;;;33.80;;
11006;SDS011;8186;57.652;11.968;2024-03-02T10:54:02;42.87;;;32.50;;
11006;SDS011;8186;57.652;11.968;2024-03-02T10:56:31;42.20;;;33.37;;
11006;SDS011;8186;57.652;11.968;2024-03-02T10:59:01;45.37;;;32.87;;
11006;SDS011;8186;57.652;11.968;2024-03-02T11:01:29;44.27;;;32.97;;
11006;SDS011;8186;57.652;11.968;2024-03-02T11:03:58;41.20;;;32.03;;
11006;SDS011;8186;57.652;11.968;2024-03-02T11:06:26;40.67;;;31.87;;
11006;SDS011;8186;57.652;11.968;2024-03-02T11:08:57;40.07;;;31.30;;
11006;SDS011;8186;57.652;11.968;2024-03-02T11:11:27;38.33;;;28.23;;
11006;SDS011;8186;57.652;11.968;2024-03-02T11:13:57;39.13;;;30.57;;
11006;SDS011;8186;57.652;11.968;2024-03-02T11:16:33;38.27;;;29.10;;
11006;SDS011;8186;57.652;11.968;2024-03-02T11:19:01;40.40;;;30.77;;
11006;SDS011;8186;57.652;11.968;2024-03-02T11:21:30;40.13;;;29.90;;
11006;SDS011;8186;57.652;11.968;2024-03-02T11:23:58;34.57;;;27.93;;
11006;SDS011;8186;57.652;11.968;2024-03-02T11:26:25;33.17;;;26.97;;
11006;SDS011;8186;57.652;11.968;2024-03-02T11:28:53;33.30;;;27.40;;
11006;SDS011;8186;57.652;11.968;2024-03-02T11:31:22;33.97;;;27.20;;
11006;SDS011;8186;57.652;11.968;2024-03-02T11:33:49;32.40;;;26.43;;
11006;SDS011;8186;57.652;11.968;2024-03-02T11:36:16;34.57;;;25.43;;
11006;SDS011;8186;57.652;11.968;2024-03-02T11:38:43;31.10;;;23.87;;
11006;SDS011;8186;57.652;11.968;2024-03-02T11:41:10;32.47;;;24.53;;
11006;SDS011;8186;57.652;11.968;2024-03-02T11:43:37;30.17;;;23.80;;
11006;SDS011;8186;57.652;11.968;2024-03-02T11:46:05;26.30;;;22.30;;
11006;SDS011;8186;57.652;11.968;2024-03-02T11:48:36;28.10;;;21.70;;
11006;SDS011;8186;57.652;11.968;2024-03-02T11:51:03;27.83;;;21.57;;
11006;SDS011;8186;57.652;11.968;2024-03-02T11:53:30;25.40;;;21.40;;
11006;SDS011;8186;57.652;11.968;2024-03-02T11:55:58;24.37;;;20.37;;
11006;SDS011;8186;57.652;11.968;2024-03-02T11:58:26;23.67;;;19.97;;
11006;SDS011;8186;57.652;11.968;2024-03-02T12:00:54;21.63;;;18.90;;
11006;SDS011;8186;57.652;11.968;2024-03-02T12:03:22;22.37;;;19.23;;
11006;SDS011;8186;57.652;11.968;2024-03-02T12:05:52;22.67;;;19.40;;
11006;SDS011;8186;57.652;11.968;2024-03-02T12:08:19;22.17;;;18.13;;
11006;SDS011;8186;57.652;11.968;2024-03-02T12:10:55;19.67;;;17.27;;
11006;SDS011;8186;57.652;11.968;2024-03-02T12:13:23;18.40;;;16.20;;
11006;SDS011;8186;57.652;11.968;2024-03-02T12:15:52;20.33;;;17.77;;
11006;SDS011;8186;57.652;11.968;2024-03-02T12:18:19;17.90;;;16.00;;
11006;SDS011;8186;57.652;11.968;2024-03-02T12:20:46;17.20;;;14.83;;
11006;SDS011;8186;57.652;11.968;2024-03-02T12:23:18;18.23;;;15.27;;
11006;SDS011;8186;57.652;11.968;2024-03-02T12:25:46;18.00;;;15.17;;
11006;SDS011;8186;57.652;11.968;2024-03-02T12:28:13;16.80;;;15.10;;
11006;SDS011;8186;57.652;11.968;2024-03-02T12:30:40;16.70;;;15.03;;
11006;SDS011;8186;57.652;11.968;2024-03-02T12:33:06;17.20;;;14.37;;
11006;SDS011;8186;57.652;11.968;2024-03-02T12:35:33;18.30;;;13.93;;
11006;SDS011;8186;57.652;11.968;2024-03-02T12:38:01;15.83;;;14.00;;
11006;SDS011;8186;57.652;11.968;2024-03-02T12:40:30;15.33;;;13.13;;
11006;SDS011;8186;57.652;11.968;2024-03-02T12:42:57;14.17;;;12.30;;
11006;SDS011;8186;57.652;11.968;2024-03-02T12:45:24;14.63;;;12.70;;
11006;SDS011;8186;57.652;11.968;2024-03-02T12:47:51;15.53;;;13.20;;
11006;SDS011;8186;57.652;11.968;2024-03-02T12:50:17;13.07;;;11.77;;
11006;SDS011;8186;57.652;11.968;2024-03-02T12:52:50;12.50;;;11.30;;
11006;SDS011;8186;57.652;11.968;2024-03-02T12:55:17;13.77;;;12.10;;
11006;SDS011;8186;57.652;11.968;2024-03-02T12:57:46;12.63;;;11.20;;
11006;SDS011;8186;57.652;11.968;2024-03-02T13:00:13;12.60;;;11.30;;
11006;SDS011;8186;57.652;11.968;2024-03-02T13:02:40;12.27;;;11.07;;
11006;SDS011;8186;57.652;11.968;2024-03-02T13:05:08;11.47;;;10.30;;
11006;SDS011;8186;57.652;11.968;2024-03-02T13:07:36;10.67;;;9.57;;
11006;SDS011;8186;57.652;11.968;2024-03-02T13:10:03;11.40;;;10.30;;
11006;SDS011;8186;57.652;11.968;2024-03-02T13:12:31;10.20;;;9.20;;
11006;SDS011;8186;57.652;11.968;2024-03-02T13:14:59;10.27;;;8.73;;
11006;SDS011;8186;57.652;11.968;2024-03-02T13:17:27;10.13;;;9.13;;
11006;SDS011;8186;57.652;11.968;2024-03-02T13:19:55;10.83;;;9.20;;
11006;SDS011;8186;57.652;11.968;2024-03-02T13:22:22;9.47;;;8.50;;
11006;SDS011;8186;57.652;11.968;2024-03-02T13:24:49;9.10;;;8.27;;
11006;SDS011;8186;57.652;11.968;2024-03-02T13:27:16;9.47;;;8.63;;
11006;SDS011;8186;57.652;11.968;2024-03-02T13:29:45;8.97;;;8.07;;
11006;SDS011;8186;57.652;11.968;2024-03-02T13:32:14;9.73;;;8.53;;
11006;SDS011;8186;57.652;11.968;2024-03-02T13:34:40;9.40;;;8.30;;
11006;SDS011;8186;57.652;11.968;2024-03-02T13:37:07;9.60;;;8.13;;
11006;SDS011;8186;57.652;11.968;2024-03-02T13:39:34;8.70;;;7.80;;
11006;SDS011;8186;57.652;11.968;2024-03-02T13:42:06;8.33;;;7.53;;
11006;SDS011;8186;57.652;11.968;2024-03-02T13:44:33;8.87;;;7.37;;
11006;SDS011;8186;57.652;11.968;2024-03-02T13:47:00;8.30;;;7.60;;
11006;SDS011;8186;57.652;11.968;2024-03-02T13:49:29;8.60;;;7.80;;
11006;SDS011;8186;57.652;11.968;2024-03-02T13:51:58;17.77;;;9.37;;
11006;SDS011;8186;57.652;11.968;2024-03-02T13:54:28;8.30;;;7.47;;
11006;SDS011;8186;57.652;11.968;2024-03-02T13:56:55;8.73;;;7.50;;
11006;SDS011;8186;57.652;11.968;2024-03-02T13:59:23;7.97;;;7.17;;
11006;SDS011;8186;57.652;11.968;2024-03-02T14:01:49;7.97;;;7.20;;
11006;SDS011;8186;57.652;11.968;2024-03-02T14:04:16;7.60;;;6.83;;
11006;SDS011;8186;57.652;11.968;2024-03-02T14:06:45;8.43;;;7.63;;
11006;SDS011;8186;57.652;11.968;2024-03-02T14:09:11;8.63;;;7.83;;
11006;SDS011;8186;57.652;11.968;2024-03-02T14:11:38;7.50;;;6.80;;
11006;SDS011;8186;57.652;11.968;2024-03-02T14:14:05;7.93;;;7.13;;
11006;SDS011;8186;57.652;11.968;2024-03-02T14:16:32;8.17;;;7.43;;
11006;SDS011;8186;57.652;11.968;2024-03-02T14:18:59;7.80;;;7.00;;
11006;SDS011;8186;57.652;11.968;2024-03-02T14:21:26;7.97;;;7.27;;
11006;SDS011;8186;57.652;11.968;2024-03-02T14:23:54;7.43;;;6.73;;
11006;SDS011;8186;57.652;11.968;2024-03-02T14:26:20;6.90;;;6.30;;
11006;SDS011;8186;57.652;11.968;2024-03-02T14:28:47;7.20;;;6.50;;